Aérodrome :
LOGIN :

S'inscrire | Disclaimer

   EN    FR    IT 

 










Légende :    VFR   VFR Marginal   IFR   IFR Intensif   IFR Très Intensif
Visi : 
Plafond : 
>= 8 km
>= 3000ft
5 à 8 km
1000 à 3000 ft
1500m à 5 km
500 à 1000 ft
800 à 1500m
200 à 500 ft
< 800m
< 200 ft
Symboles :   Orages  Brouillard  Fortes neiges  Fortes précipitations  Vent > 20 kt
SIGMETs :   Divers  Orages  Givrage  Turbulence  Onde Orograph.  Cendres Volcan.







- Altitude de l'aérodrome : 79 ft
- Code IATA : SPU


LDSP - Split

DERNIER METAR :
  • 220400Z AUTO 31007KT 280V350 CAVOK 04/M09 Q1014 NOSIG

METARs EXPIRÉS :
  • 220330Z AUTO 34006KT 300V030 CAVOK 04/M08 Q1014 NOSIG
  • 220300Z AUTO 02009KT CAVOK 06/M10 Q1014 NOSIG
  • 220230Z AUTO 01011KT CAVOK 06/M09 Q1013
  • 220200Z AUTO 36016G26KT CAVOK 06/M09 Q1013
  • 220130Z AUTO 36015G30KT CAVOK 06/M08 Q1013

TAF TAF LDSP
Valide du 22 à 00h jusqu'au 23 à 00h UTC


212325Z 2200/2300 35015KT CAVOK TX09/2212Z TN03/2204Z
TEMPO 2200/2202 35020G30KT
BECMG 2203/2205 35008KT
Pas de NOTAMs connus pour ce terrain.
2 SIGMETs publiés pour la FIR Zagreb (LDZO) :
 
Turbulence forte
LDZO SIGMET 10 VALID 220000/220400 LDZA
LDZO ZAGREB FIR SEV TURB FCST WI N4229 E01834 - N4200 E01826 - N4257 E01616 - N4327 E01716 - N4229 E01834 SFC/6000FT STNR NC=
Turbulence forte
LDZO SIGMET 1 VALID 220400/220800 LDZA
LDZO ZAGREB FIR SEV TURB FCST WI N4229 E01834 - N4200 E01826 - N4257 E01616 - N4327 E01716 - N4229 E01834 SFC/6000FT STNR WKN=



MET'MAP, la Météo Aéronautique d'un coup d'oeil ! - Copyright ORBIFLY Décembre 2007 - Disclaimer

ORBIFLY MET'MAP TEAM :

Programmation & Développement : Alexandra Zaïnal
Conception & Développement : Baudouin d'Aumeries
Co-Programmation & Développement : Marc-Olivier Méhu
Soutien technique & logistique : Manuel Goepfert

Contact : metmap@orbifly.com




SOURCES & CREDITS :

   NOAA